sensor_id;sensor_type;location;lat;lon;timestamp;P1;durP1;ratioP1;P2;durP2;ratioP2
38435;SDS011;24220;48.168;14.024;2022-10-19T00:03:41;11.23;;;7.30;;
38435;SDS011;24220;48.168;14.024;2022-10-19T00:06:11;9.48;;;7.40;;
38435;SDS011;24220;48.168;14.024;2022-10-19T00:08:40;10.90;;;7.57;;
38435;SDS011;24220;48.168;14.024;2022-10-19T00:11:12;7.43;;;6.65;;
38435;SDS011;24220;48.168;14.024;2022-10-19T00:13:40;11.23;;;7.50;;
38435;SDS011;24220;48.168;14.024;2022-10-19T00:16:13;9.38;;;6.95;;
38435;SDS011;24220;48.168;14.024;2022-10-19T00:18:42;12.90;;;7.10;;
38435;SDS011;24220;48.168;14.024;2022-10-19T00:21:13;9.10;;;7.43;;
38435;SDS011;24220;48.168;14.024;2022-10-19T00:23:41;9.10;;;6.95;;
38435;SDS011;24220;48.168;14.024;2022-10-19T00:26:12;8.63;;;6.90;;
38435;SDS011;24220;48.168;14.024;2022-10-19T00:28:42;9.15;;;7.30;;
38435;SDS011;24220;48.168;14.024;2022-10-19T00:31:15;8.55;;;7.43;;
38435;SDS011;24220;48.168;14.024;2022-10-19T00:33:43;8.02;;;6.90;;
38435;SDS011;24220;48.168;14.024;2022-10-19T00:36:19;8.15;;;7.13;;
38435;SDS011;24220;48.168;14.024;2022-10-19T00:38:49;9.15;;;7.07;;
38435;SDS011;24220;48.168;14.024;2022-10-19T00:41:20;9.63;;;7.38;;
38435;SDS011;24220;48.168;14.024;2022-10-19T00:46:19;8.98;;;6.97;;
38435;SDS011;24220;48.168;14.024;2022-10-19T00:48:47;9.45;;;7.38;;
38435;SDS011;24220;48.168;14.024;2022-10-19T00:51:18;13.15;;;8.77;;
38435;SDS011;24220;48.168;14.024;2022-10-19T00:53:49;10.93;;;8.18;;
38435;SDS011;24220;48.168;14.024;2022-10-19T00:56:17;10.30;;;8.30;;
38435;SDS011;24220;48.168;14.024;2022-10-19T00:58:44;8.57;;;7.68;;
38435;SDS011;24220;48.168;14.024;2022-10-19T01:01:15;11.90;;;8.05;;
38435;SDS011;24220;48.168;14.024;2022-10-19T01:03:45;10.15;;;7.90;;
38435;SDS011;24220;48.168;14.024;2022-10-19T01:06:16;8.57;;;7.35;;
38435;SDS011;24220;48.168;14.024;2022-10-19T01:08:46;13.10;;;7.63;;
38435;SDS011;24220;48.168;14.024;2022-10-19T01:11:17;9.98;;;7.95;;
38435;SDS011;24220;48.168;14.024;2022-10-19T01:19:52;8.50;;;7.00;;
38435;SDS011;24220;48.168;14.024;2022-10-19T01:28:18;9.13;;;7.57;;
38435;SDS011;24220;48.168;14.024;2022-10-19T01:37:10;9.32;;;7.95;;
38435;SDS011;24220;48.168;14.024;2022-10-19T01:39:56;9.63;;;7.60;;
38435;SDS011;24220;48.168;14.024;2022-10-19T01:42:33;10.77;;;7.78;;
38435;SDS011;24220;48.168;14.024;2022-10-19T01:48:21;9.25;;;7.68;;
38435;SDS011;24220;48.168;14.024;2022-10-19T01:50:53;9.52;;;8.52;;
38435;SDS011;24220;48.168;14.024;2022-10-19T01:53:26;16.08;;;9.40;;
38435;SDS011;24220;48.168;14.024;2022-10-19T01:55:56;9.70;;;8.52;;
38435;SDS011;24220;48.168;14.024;2022-10-19T01:58:26;9.75;;;8.55;;
38435;SDS011;24220;48.168;14.024;2022-10-19T02:00:57;10.25;;;8.52;;
38435;SDS011;24220;48.168;14.024;2022-10-19T02:03:29;10.90;;;9.38;;
38435;SDS011;24220;48.168;14.024;2022-10-19T02:06:00;10.18;;;9.07;;
38435;SDS011;24220;48.168;14.024;2022-10-19T02:08:35;11.15;;;9.48;;
38435;SDS011;24220;48.168;14.024;2022-10-19T02:11:09;15.52;;;10.27;;
38435;SDS011;24220;48.168;14.024;2022-10-19T02:13:39;11.35;;;9.30;;
38435;SDS011;24220;48.168;14.024;2022-10-19T02:16:15;10.70;;;9.55;;
38435;SDS011;24220;48.168;14.024;2022-10-19T02:18:48;12.88;;;10.02;;
38435;SDS011;24220;48.168;14.024;2022-10-19T02:21:17;12.43;;;10.38;;
38435;SDS011;24220;48.168;14.024;2022-10-19T02:23:45;13.20;;;11.10;;
38435;SDS011;24220;48.168;14.024;2022-10-19T02:26:17;12.32;;;11.05;;
38435;SDS011;24220;48.168;14.024;2022-10-19T02:28:45;13.80;;;10.85;;
38435;SDS011;24220;48.168;14.024;2022-10-19T02:31:13;13.55;;;11.13;;
38435;SDS011;24220;48.168;14.024;2022-10-19T02:33:40;12.95;;;11.30;;
38435;SDS011;24220;48.168;14.024;2022-10-19T02:36:11;12.23;;;10.93;;
38435;SDS011;24220;48.168;14.024;2022-10-19T02:38:41;13.32;;;12.02;;
38435;SDS011;24220;48.168;14.024;2022-10-19T02:41:28;15.18;;;12.20;;
38435;SDS011;24220;48.168;14.024;2022-10-19T02:44:09;13.50;;;11.85;;
38435;SDS011;24220;48.168;14.024;2022-10-19T02:47:14;13.93;;;11.88;;
38435;SDS011;24220;48.168;14.024;2022-10-19T02:49:55;13.90;;;11.60;;
38435;SDS011;24220;48.168;14.024;2022-10-19T02:52:22;13.13;;;11.75;;
38435;SDS011;24220;48.168;14.024;2022-10-19T02:54:50;15.65;;;11.05;;
38435;SDS011;24220;48.168;14.024;2022-10-19T02:59:51;14.20;;;12.13;;
38435;SDS011;24220;48.168;14.024;2022-10-19T03:02:21;12.70;;;11.23;;
38435;SDS011;24220;48.168;14.024;2022-10-19T03:04:50;13.57;;;12.18;;
38435;SDS011;24220;48.168;14.024;2022-10-19T03:07:19;13.95;;;11.38;;
38435;SDS011;24220;48.168;14.024;2022-10-19T03:09:47;12.77;;;10.88;;
38435;SDS011;24220;48.168;14.024;2022-10-19T03:12:15;12.60;;;10.77;;
38435;SDS011;24220;48.168;14.024;2022-10-19T03:14:42;13.60;;;11.45;;
38435;SDS011;24220;48.168;14.024;2022-10-19T03:17:12;11.88;;;10.68;;
38435;SDS011;24220;48.168;14.024;2022-10-19T03:19:41;11.95;;;10.63;;
38435;SDS011;24220;48.168;14.024;2022-10-19T03:22:09;13.30;;;11.70;;
38435;SDS011;24220;48.168;14.024;2022-10-19T03:24:43;15.57;;;11.27;;
38435;SDS011;24220;48.168;14.024;2022-10-19T03:27:13;14.73;;;11.45;;
38435;SDS011;24220;48.168;14.024;2022-10-19T03:29:43;13.05;;;11.65;;
38435;SDS011;24220;48.168;14.024;2022-10-19T03:32:10;12.07;;;10.88;;
38435;SDS011;24220;48.168;14.024;2022-10-19T03:34:39;14.85;;;11.63;;
38435;SDS011;24220;48.168;14.024;2022-10-19T03:37:07;13.13;;;10.55;;
38435;SDS011;24220;48.168;14.024;2022-10-19T03:39:39;12.68;;;11.20;;
38435;SDS011;24220;48.168;14.024;2022-10-19T03:42:06;12.65;;;11.32;;
38435;SDS011;24220;48.168;14.024;2022-10-19T03:44:34;14.63;;;11.23;;
38435;SDS011;24220;48.168;14.024;2022-10-19T03:47:01;15.57;;;11.93;;
38435;SDS011;24220;48.168;14.024;2022-10-19T03:49:33;13.75;;;11.25;;
38435;SDS011;24220;48.168;14.024;2022-10-19T03:52:05;13.50;;;11.77;;
38435;SDS011;24220;48.168;14.024;2022-10-19T03:54:35;15.88;;;11.68;;
38435;SDS011;24220;48.168;14.024;2022-10-19T03:57:03;13.52;;;12.15;;
38435;SDS011;24220;48.168;14.024;2022-10-19T03:59:31;15.50;;;11.90;;
38435;SDS011;24220;48.168;14.024;2022-10-19T04:01:58;13.85;;;12.13;;
38435;SDS011;24220;48.168;14.024;2022-10-19T04:04:28;14.63;;;12.25;;
38435;SDS011;24220;48.168;14.024;2022-10-19T04:06:55;16.23;;;12.18;;
38435;SDS011;24220;48.168;14.024;2022-10-19T04:09:22;16.02;;;12.95;;
38435;SDS011;24220;48.168;14.024;2022-10-19T04:11:52;16.08;;;13.68;;
38435;SDS011;24220;48.168;14.024;2022-10-19T04:14:22;13.65;;;12.23;;
38435;SDS011;24220;48.168;14.024;2022-10-19T04:17:00;16.00;;;13.85;;
38435;SDS011;24220;48.168;14.024;2022-10-19T04:19:28;16.05;;;13.68;;
38435;SDS011;24220;48.168;14.024;2022-10-19T04:21:58;15.23;;;13.65;;
38435;SDS011;24220;48.168;14.024;2022-10-19T04:24:27;14.35;;;12.55;;
38435;SDS011;24220;48.168;14.024;2022-10-19T04:26:55;14.90;;;12.93;;
38435;SDS011;24220;48.168;14.024;2022-10-19T04:29:25;17.15;;;13.57;;
38435;SDS011;24220;48.168;14.024;2022-10-19T04:31:55;14.43;;;12.25;;
38435;SDS011;24220;48.168;14.024;2022-10-19T04:34:23;15.75;;;13.90;;
38435;SDS011;24220;48.168;14.024;2022-10-19T04:36:51;17.00;;;14.55;;
38435;SDS011;24220;48.168;14.024;2022-10-19T04:39:19;15.27;;;13.63;;
38435;SDS011;24220;48.168;14.024;2022-10-19T04:41:48;14.02;;;12.43;;
38435;SDS011;24220;48.168;14.024;2022-10-19T04:44:15;15.40;;;12.73;;
38435;SDS011;24220;48.168;14.024;2022-10-19T04:46:43;17.52;;;14.43;;
38435;SDS011;24220;48.168;14.024;2022-10-19T04:49:10;16.30;;;14.35;;
38435;SDS011;24220;48.168;14.024;2022-10-19T04:51:45;16.42;;;14.15;;
38435;SDS011;24220;48.168;14.024;2022-10-19T04:54:12;14.48;;;12.95;;
38435;SDS011;24220;48.168;14.024;2022-10-19T04:56:39;15.13;;;13.45;;
38435;SDS011;24220;48.168;14.024;2022-10-19T04:59:08;15.75;;;13.68;;
38435;SDS011;24220;48.168;14.024;2022-10-19T05:01:38;16.42;;;13.55;;
38435;SDS011;24220;48.168;14.024;2022-10-19T05:04:15;15.05;;;13.18;;
38435;SDS011;24220;48.168;14.024;2022-10-19T05:06:42;15.63;;;13.82;;
38435;SDS011;24220;48.168;14.024;2022-10-19T05:09:12;14.32;;;12.82;;
38435;SDS011;24220;48.168;14.024;2022-10-19T05:11:41;15.48;;;12.07;;
38435;SDS011;24220;48.168;14.024;2022-10-19T05:14:13;15.23;;;13.18;;
38435;SDS011;24220;48.168;14.024;2022-10-19T05:16:41;15.75;;;12.70;;
38435;SDS011;24220;48.168;14.024;2022-10-19T05:19:12;15.40;;;13.30;;
38435;SDS011;24220;48.168;14.024;2022-10-19T05:21:42;17.48;;;12.70;;
38435;SDS011;24220;48.168;14.024;2022-10-19T05:24:10;16.23;;;12.48;;
38435;SDS011;24220;48.168;14.024;2022-10-19T05:26:39;16.42;;;13.77;;
38435;SDS011;24220;48.168;14.024;2022-10-19T05:29:09;16.67;;;14.07;;
38435;SDS011;24220;48.168;14.024;2022-10-19T05:34:05;50.08;;;32.17;;
38435;SDS011;24220;48.168;14.024;2022-10-19T05:36:34;82.50;;;47.70;;
38435;SDS011;24220;48.168;14.024;2022-10-19T05:39:11;65.28;;;39.10;;
38435;SDS011;24220;48.168;14.024;2022-10-19T05:41:43;45.30;;;29.55;;
38435;SDS011;24220;48.168;14.024;2022-10-19T05:44:18;29.05;;;20.45;;
38435;SDS011;24220;48.168;14.024;2022-10-19T05:46:51;27.05;;;18.70;;
38435;SDS011;24220;48.168;14.024;2022-10-19T05:49:19;20.17;;;17.08;;
38435;SDS011;24220;48.168;14.024;2022-10-19T05:51:48;18.80;;;15.52;;
38435;SDS011;24220;48.168;14.024;2022-10-19T05:54:21;17.48;;;15.10;;
38435;SDS011;24220;48.168;14.024;2022-10-19T05:56:54;21.42;;;15.23;;
38435;SDS011;24220;48.168;14.024;2022-10-19T05:59:21;19.27;;;15.65;;
38435;SDS011;24220;48.168;14.024;2022-10-19T06:01:51;18.10;;;14.73;;
38435;SDS011;24220;48.168;14.024;2022-10-19T06:04:19;17.67;;;15.38;;
38435;SDS011;24220;48.168;14.024;2022-10-19T06:06:48;19.48;;;15.13;;
38435;SDS011;24220;48.168;14.024;2022-10-19T06:09:16;19.08;;;15.98;;
38435;SDS011;24220;48.168;14.024;2022-10-19T06:11:46;22.67;;;16.48;;
38435;SDS011;24220;48.168;14.024;2022-10-19T06:14:16;56.88;;;30.75;;
38435;SDS011;24220;48.168;14.024;2022-10-19T06:16:43;44.00;;;25.25;;
38435;SDS011;24220;48.168;14.024;2022-10-19T06:19:12;35.08;;;20.63;;
38435;SDS011;24220;48.168;14.024;2022-10-19T06:21:39;32.47;;;21.00;;
38435;SDS011;24220;48.168;14.024;2022-10-19T06:24:11;32.08;;;20.58;;
38435;SDS011;24220;48.168;14.024;2022-10-19T06:26:41;24.63;;;18.90;;
38435;SDS011;24220;48.168;14.024;2022-10-19T06:29:08;21.10;;;18.23;;
38435;SDS011;24220;48.168;14.024;2022-10-19T06:31:36;20.45;;;17.23;;
38435;SDS011;24220;48.168;14.024;2022-10-19T06:34:04;23.95;;;17.52;;
38435;SDS011;24220;48.168;14.024;2022-10-19T06:36:36;19.23;;;15.77;;
38435;SDS011;24220;48.168;14.024;2022-10-19T06:39:03;21.50;;;16.70;;
38435;SDS011;24220;48.168;14.024;2022-10-19T06:41:31;17.52;;;15.48;;
38435;SDS011;24220;48.168;14.024;2022-10-19T06:44:02;18.02;;;14.90;;
38435;SDS011;24220;48.168;14.024;2022-10-19T06:46:29;18.63;;;15.93;;
38435;SDS011;24220;48.168;14.024;2022-10-19T06:48:59;20.15;;;16.90;;
38435;SDS011;24220;48.168;14.024;2022-10-19T06:51:31;17.23;;;15.25;;
38435;SDS011;24220;48.168;14.024;2022-10-19T06:53:59;23.35;;;17.20;;
38435;SDS011;24220;48.168;14.024;2022-10-19T06:56:27;33.35;;;23.13;;
38435;SDS011;24220;48.168;14.024;2022-10-19T06:58:54;145.52;;;69.53;;
38435;SDS011;24220;48.168;14.024;2022-10-19T07:01:25;46.40;;;30.05;;
38435;SDS011;24220;48.168;14.024;2022-10-19T07:03:55;27.15;;;20.73;;
38435;SDS011;24220;48.168;14.024;2022-10-19T07:06:25;21.55;;;18.40;;
38435;SDS011;24220;48.168;14.024;2022-10-19T07:08:55;24.42;;;18.00;;
38435;SDS011;24220;48.168;14.024;2022-10-19T07:11:23;19.10;;;17.02;;
38435;SDS011;24220;48.168;14.024;2022-10-19T07:13:50;21.58;;;17.90;;
38435;SDS011;24220;48.168;14.024;2022-10-19T07:16:20;19.73;;;17.08;;
38435;SDS011;24220;48.168;14.024;2022-10-19T07:18:49;21.50;;;19.20;;
38435;SDS011;24220;48.168;14.024;2022-10-19T07:21:20;24.60;;;20.65;;
38435;SDS011;24220;48.168;14.024;2022-10-19T07:23:48;19.65;;;17.52;;
38435;SDS011;24220;48.168;14.024;2022-10-19T07:26:17;19.08;;;16.85;;
38435;SDS011;24220;48.168;14.024;2022-10-19T07:28:49;20.70;;;17.02;;
38435;SDS011;24220;48.168;14.024;2022-10-19T07:31:17;22.23;;;16.85;;
38435;SDS011;24220;48.168;14.024;2022-10-19T07:33:52;20.63;;;17.27;;
38435;SDS011;24220;48.168;14.024;2022-10-19T07:36:21;24.38;;;17.85;;
38435;SDS011;24220;48.168;14.024;2022-10-19T07:38:49;21.73;;;17.50;;
38435;SDS011;24220;48.168;14.024;2022-10-19T07:41:17;19.27;;;16.63;;
38435;SDS011;24220;48.168;14.024;2022-10-19T07:43:47;19.65;;;15.77;;
38435;SDS011;24220;48.168;14.024;2022-10-19T07:46:16;17.13;;;14.98;;
38435;SDS011;24220;48.168;14.024;2022-10-19T07:48:48;19.25;;;15.98;;
38435;SDS011;24220;48.168;14.024;2022-10-19T07:51:16;19.10;;;15.77;;
38435;SDS011;24220;48.168;14.024;2022-10-19T07:53:44;18.42;;;16.27;;
38435;SDS011;24220;48.168;14.024;2022-10-19T07:56:13;18.83;;;16.30;;
38435;SDS011;24220;48.168;14.024;2022-10-19T07:58:45;16.80;;;15.00;;
38435;SDS011;24220;48.168;14.024;2022-10-19T08:01:14;20.80;;;17.30;;
38435;SDS011;24220;48.168;14.024;2022-10-19T08:03:43;20.80;;;16.77;;
38435;SDS011;24220;48.168;14.024;2022-10-19T08:06:32;21.15;;;17.50;;
38435;SDS011;24220;48.168;14.024;2022-10-19T08:09:03;21.50;;;16.88;;
38435;SDS011;24220;48.168;14.024;2022-10-19T08:11:32;20.13;;;16.67;;
38435;SDS011;24220;48.168;14.024;2022-10-19T08:14:01;21.20;;;16.98;;
38435;SDS011;24220;48.168;14.024;2022-10-19T08:19:07;26.10;;;21.08;;
38435;SDS011;24220;48.168;14.024;2022-10-19T08:21:36;20.55;;;18.35;;
38435;SDS011;24220;48.168;14.024;2022-10-19T08:24:08;17.70;;;15.80;;
38435;SDS011;24220;48.168;14.024;2022-10-19T08:26:38;18.30;;;15.75;;
38435;SDS011;24220;48.168;14.024;2022-10-19T08:29:07;16.20;;;14.27;;
38435;SDS011;24220;48.168;14.024;2022-10-19T08:31:38;22.02;;;16.65;;
38435;SDS011;24220;48.168;14.024;2022-10-19T08:34:06;18.38;;;16.15;;
38435;SDS011;24220;48.168;14.024;2022-10-19T08:36:40;19.92;;;15.80;;
38435;SDS011;24220;48.168;14.024;2022-10-19T08:39:13;18.30;;;14.60;;
38435;SDS011;24220;48.168;14.024;2022-10-19T08:47:57;28.42;;;18.08;;
38435;SDS011;24220;48.168;14.024;2022-10-19T08:50:26;20.23;;;14.85;;
38435;SDS011;24220;48.168;14.024;2022-10-19T08:53:01;22.67;;;14.77;;
38435;SDS011;24220;48.168;14.024;2022-10-19T09:03:24;13.73;;;12.10;;
38435;SDS011;24220;48.168;14.024;2022-10-19T09:09:00;14.60;;;11.90;;
38435;SDS011;24220;48.168;14.024;2022-10-19T09:11:29;13.23;;;11.65;;
38435;SDS011;24220;48.168;14.024;2022-10-19T09:14:09;13.38;;;10.82;;
38435;SDS011;24220;48.168;14.024;2022-10-19T09:16:59;13.63;;;11.30;;
38435;SDS011;24220;48.168;14.024;2022-10-19T09:19:34;13.85;;;11.50;;
38435;SDS011;24220;48.168;14.024;2022-10-19T09:27:35;16.55;;;12.10;;
38435;SDS011;24220;48.168;14.024;2022-10-19T09:30:16;16.63;;;12.23;;
38435;SDS011;24220;48.168;14.024;2022-10-19T09:32:46;14.85;;;11.65;;
38435;SDS011;24220;48.168;14.024;2022-10-19T09:37:59;23.98;;;18.60;;
38435;SDS011;24220;48.168;14.024;2022-10-19T09:40:28;17.48;;;14.13;;
38435;SDS011;24220;48.168;14.024;2022-10-19T09:43:00;16.40;;;11.65;;
38435;SDS011;24220;48.168;14.024;2022-10-19T09:45:49;11.95;;;9.88;;
38435;SDS011;24220;48.168;14.024;2022-10-19T09:48:40;13.15;;;10.82;;
38435;SDS011;24220;48.168;14.024;2022-10-19T09:51:11;13.20;;;10.95;;
38435;SDS011;24220;48.168;14.024;2022-10-19T09:56:22;13.95;;;10.82;;
38435;SDS011;24220;48.168;14.024;2022-10-19T09:58:54;11.52;;;9.65;;
38435;SDS011;24220;48.168;14.024;2022-10-19T10:01:36;15.13;;;11.52;;
38435;SDS011;24220;48.168;14.024;2022-10-19T10:04:18;14.38;;;10.75;;
38435;SDS011;24220;48.168;14.024;2022-10-19T10:06:46;14.70;;;11.85;;
38435;SDS011;24220;48.168;14.024;2022-10-19T10:09:26;19.75;;;13.07;;
38435;SDS011;24220;48.168;14.024;2022-10-19T10:11:58;14.27;;;10.60;;
38435;SDS011;24220;48.168;14.024;2022-10-19T10:14:27;16.38;;;11.02;;
38435;SDS011;24220;48.168;14.024;2022-10-19T10:21:58;13.02;;;9.23;;
38435;SDS011;24220;48.168;14.024;2022-10-19T10:27:00;12.40;;;8.38;;
38435;SDS011;24220;48.168;14.024;2022-10-19T10:29:31;9.32;;;7.90;;
38435;SDS011;24220;48.168;14.024;2022-10-19T10:32:06;11.07;;;8.80;;
38435;SDS011;24220;48.168;14.024;2022-10-19T10:34:44;13.27;;;8.57;;
38435;SDS011;24220;48.168;14.024;2022-10-19T10:37:40;9.65;;;8.27;;
38435;SDS011;24220;48.168;14.024;2022-10-19T10:40:25;8.95;;;7.30;;
38435;SDS011;24220;48.168;14.024;2022-10-19T10:43:01;9.80;;;7.65;;
38435;SDS011;24220;48.168;14.024;2022-10-19T10:45:36;11.20;;;7.80;;
38435;SDS011;24220;48.168;14.024;2022-10-19T10:48:43;10.70;;;8.70;;
38435;SDS011;24220;48.168;14.024;2022-10-19T10:56:35;10.07;;;6.90;;
38435;SDS011;24220;48.168;14.024;2022-10-19T10:59:20;8.73;;;6.05;;
38435;SDS011;24220;48.168;14.024;2022-10-19T11:04:26;17.25;;;9.32;;
38435;SDS011;24220;48.168;14.024;2022-10-19T11:07:04;6.55;;;5.80;;
38435;SDS011;24220;48.168;14.024;2022-10-19T11:09:45;6.15;;;4.97;;
38435;SDS011;24220;48.168;14.024;2022-10-19T11:12:23;7.93;;;5.70;;
38435;SDS011;24220;48.168;14.024;2022-10-19T11:18:20;6.20;;;5.00;;
38435;SDS011;24220;48.168;14.024;2022-10-19T11:37:27;3.92;;;3.53;;
38435;SDS011;24220;48.168;14.024;2022-10-19T11:40:26;5.57;;;4.38;;
38435;SDS011;24220;48.168;14.024;2022-10-19T11:43:08;4.95;;;4.20;;
38435;SDS011;24220;48.168;14.024;2022-10-19T11:46:09;6.10;;;4.63;;
38435;SDS011;24220;48.168;14.024;2022-10-19T11:48:56;5.72;;;4.82;;
38435;SDS011;24220;48.168;14.024;2022-10-19T11:56:58;5.68;;;4.63;;
38435;SDS011;24220;48.168;14.024;2022-10-19T12:00:21;5.40;;;4.75;;
38435;SDS011;24220;48.168;14.024;2022-10-19T12:16:50;4.25;;;3.72;;
38435;SDS011;24220;48.168;14.024;2022-10-19T12:19:23;4.30;;;3.90;;
38435;SDS011;24220;48.168;14.024;2022-10-19T12:22:01;4.35;;;3.95;;
38435;SDS011;24220;48.168;14.024;2022-10-19T12:24:31;5.43;;;4.18;;
38435;SDS011;24220;48.168;14.024;2022-10-19T12:27:00;4.13;;;3.67;;
38435;SDS011;24220;48.168;14.024;2022-10-19T12:29:33;4.60;;;3.95;;
38435;SDS011;24220;48.168;14.024;2022-10-19T12:32:05;4.00;;;3.22;;
38435;SDS011;24220;48.168;14.024;2022-10-19T12:42:47;3.25;;;2.90;;
38435;SDS011;24220;48.168;14.024;2022-10-19T12:45:32;3.33;;;2.88;;
38435;SDS011;24220;48.168;14.024;2022-10-19T12:48:26;3.22;;;2.78;;
38435;SDS011;24220;48.168;14.024;2022-10-19T12:56:06;4.63;;;3.80;;
38435;SDS011;24220;48.168;14.024;2022-10-19T13:09:23;5.55;;;3.90;;
38435;SDS011;24220;48.168;14.024;2022-10-19T13:22:46;5.20;;;3.88;;
38435;SDS011;24220;48.168;14.024;2022-10-19T13:27:47;4.07;;;3.67;;
38435;SDS011;24220;48.168;14.024;2022-10-19T13:43:38;5.15;;;4.38;;
38435;SDS011;24220;48.168;14.024;2022-10-19T13:46:11;5.03;;;4.53;;
38435;SDS011;24220;48.168;14.024;2022-10-19T14:00:23;5.38;;;4.20;;
38435;SDS011;24220;48.168;14.024;2022-10-19T14:14:42;6.80;;;4.25;;
38435;SDS011;24220;48.168;14.024;2022-10-19T14:17:17;5.30;;;4.38;;
38435;SDS011;24220;48.168;14.024;2022-10-19T14:19:49;4.75;;;4.35;;
38435;SDS011;24220;48.168;14.024;2022-10-19T14:25:05;6.87;;;4.50;;
38435;SDS011;24220;48.168;14.024;2022-10-19T14:27:55;7.10;;;4.70;;
38435;SDS011;24220;48.168;14.024;2022-10-19T14:30:33;6.97;;;5.30;;
38435;SDS011;24220;48.168;14.024;2022-10-19T14:33:05;6.82;;;5.63;;
38435;SDS011;24220;48.168;14.024;2022-10-19T14:35:36;5.85;;;5.25;;
38435;SDS011;24220;48.168;14.024;2022-10-19T14:38:05;5.43;;;4.88;;
38435;SDS011;24220;48.168;14.024;2022-10-19T14:40:46;5.43;;;4.53;;
38435;SDS011;24220;48.168;14.024;2022-10-19T14:43:21;6.00;;;4.88;;
38435;SDS011;24220;48.168;14.024;2022-10-19T14:48:40;5.90;;;5.05;;
38435;SDS011;24220;48.168;14.024;2022-10-19T14:51:32;6.45;;;5.78;;
38435;SDS011;24220;48.168;14.024;2022-10-19T14:54:05;5.40;;;4.83;;
38435;SDS011;24220;48.168;14.024;2022-10-19T14:59:38;9.23;;;5.35;;
38435;SDS011;24220;48.168;14.024;2022-10-19T15:04:49;5.70;;;5.15;;
38435;SDS011;24220;48.168;14.024;2022-10-19T15:07:25;5.70;;;4.75;;
38435;SDS011;24220;48.168;14.024;2022-10-19T15:09:55;5.60;;;5.00;;
38435;SDS011;24220;48.168;14.024;2022-10-19T15:12:28;6.72;;;4.82;;
38435;SDS011;24220;48.168;14.024;2022-10-19T15:15:05;5.45;;;4.65;;
38435;SDS011;24220;48.168;14.024;2022-10-19T15:17:52;5.63;;;4.93;;
38435;SDS011;24220;48.168;14.024;2022-10-19T15:20:34;6.38;;;5.20;;
38435;SDS011;24220;48.168;14.024;2022-10-19T15:23:37;7.28;;;5.10;;
38435;SDS011;24220;48.168;14.024;2022-10-19T15:26:31;5.35;;;4.85;;
38435;SDS011;24220;48.168;14.024;2022-10-19T15:29:08;5.97;;;4.97;;
38435;SDS011;24220;48.168;14.024;2022-10-19T15:31:44;10.98;;;6.35;;
38435;SDS011;24220;48.168;14.024;2022-10-19T15:34:20;9.18;;;6.47;;
38435;SDS011;24220;48.168;14.024;2022-10-19T15:36:57;21.48;;;11.45;;
38435;SDS011;24220;48.168;14.024;2022-10-19T15:39:30;38.00;;;19.38;;
38435;SDS011;24220;48.168;14.024;2022-10-19T15:42:22;26.52;;;14.77;;
38435;SDS011;24220;48.168;14.024;2022-10-19T15:50:37;12.27;;;9.75;;
38435;SDS011;24220;48.168;14.024;2022-10-19T15:53:08;13.15;;;9.68;;
38435;SDS011;24220;48.168;14.024;2022-10-19T15:55:36;13.38;;;8.38;;
38435;SDS011;24220;48.168;14.024;2022-10-19T15:58:03;9.57;;;7.95;;
38435;SDS011;24220;48.168;14.024;2022-10-19T16:00:35;8.13;;;7.32;;
38435;SDS011;24220;48.168;14.024;2022-10-19T16:03:05;8.10;;;7.30;;
38435;SDS011;24220;48.168;14.024;2022-10-19T16:05:35;9.27;;;7.32;;
38435;SDS011;24220;48.168;14.024;2022-10-19T16:08:03;8.82;;;7.40;;
38435;SDS011;24220;48.168;14.024;2022-10-19T16:10:37;9.30;;;8.23;;
38435;SDS011;24220;48.168;14.024;2022-10-19T16:13:04;10.50;;;8.77;;
38435;SDS011;24220;48.168;14.024;2022-10-19T16:15:32;10.02;;;8.15;;
38435;SDS011;24220;48.168;14.024;2022-10-19T16:17:59;10.20;;;8.55;;
38435;SDS011;24220;48.168;14.024;2022-10-19T16:20:27;9.93;;;8.38;;
38435;SDS011;24220;48.168;14.024;2022-10-19T16:22:58;9.52;;;8.52;;
38435;SDS011;24220;48.168;14.024;2022-10-19T16:25:27;9.35;;;8.30;;
38435;SDS011;24220;48.168;14.024;2022-10-19T16:27:55;10.48;;;8.77;;
38435;SDS011;24220;48.168;14.024;2022-10-19T16:30:24;10.88;;;9.05;;
38435;SDS011;24220;48.168;14.024;2022-10-19T16:32:52;10.32;;;8.98;;
38435;SDS011;24220;48.168;14.024;2022-10-19T16:35:19;10.07;;;8.75;;
38435;SDS011;24220;48.168;14.024;2022-10-19T16:37:47;10.57;;;9.27;;
38435;SDS011;24220;48.168;14.024;2022-10-19T16:40:14;10.25;;;9.15;;
38435;SDS011;24220;48.168;14.024;2022-10-19T16:42:42;13.40;;;9.52;;
38435;SDS011;24220;48.168;14.024;2022-10-19T16:45:09;14.05;;;9.65;;
38435;SDS011;24220;48.168;14.024;2022-10-19T16:47:36;11.05;;;9.77;;
38435;SDS011;24220;48.168;14.024;2022-10-19T16:50:04;14.00;;;10.65;;
38435;SDS011;24220;48.168;14.024;2022-10-19T16:52:32;12.77;;;10.32;;
38435;SDS011;24220;48.168;14.024;2022-10-19T16:55:00;12.50;;;11.05;;
38435;SDS011;24220;48.168;14.024;2022-10-19T16:57:27;12.80;;;10.90;;
38435;SDS011;24220;48.168;14.024;2022-10-19T16:59:59;14.25;;;10.40;;
38435;SDS011;24220;48.168;14.024;2022-10-19T17:02:29;13.35;;;11.05;;
38435;SDS011;24220;48.168;14.024;2022-10-19T17:04:59;13.95;;;11.73;;
38435;SDS011;24220;48.168;14.024;2022-10-19T17:07:28;14.75;;;11.68;;
38435;SDS011;24220;48.168;14.024;2022-10-19T17:09:55;15.27;;;11.27;;
38435;SDS011;24220;48.168;14.024;2022-10-19T17:12:23;13.13;;;10.90;;
38435;SDS011;24220;48.168;14.024;2022-10-19T17:14:53;13.30;;;11.13;;
38435;SDS011;24220;48.168;14.024;2022-10-19T17:17:40;13.77;;;10.40;;
38435;SDS011;24220;48.168;14.024;2022-10-19T17:20:08;14.55;;;10.52;;
38435;SDS011;24220;48.168;14.024;2022-10-19T17:22:36;19.00;;;11.27;;
38435;SDS011;24220;48.168;14.024;2022-10-19T17:25:04;14.63;;;11.43;;
38435;SDS011;24220;48.168;14.024;2022-10-19T17:27:31;12.82;;;10.88;;
38435;SDS011;24220;48.168;14.024;2022-10-19T17:29:59;14.70;;;11.05;;
38435;SDS011;24220;48.168;14.024;2022-10-19T17:32:26;14.45;;;10.98;;
38435;SDS011;24220;48.168;14.024;2022-10-19T17:34:53;14.75;;;10.73;;
38435;SDS011;24220;48.168;14.024;2022-10-19T17:37:23;14.43;;;11.25;;
38435;SDS011;24220;48.168;14.024;2022-10-19T17:39:51;13.77;;;11.73;;
38435;SDS011;24220;48.168;14.024;2022-10-19T17:42:18;14.10;;;11.45;;
38435;SDS011;24220;48.168;14.024;2022-10-19T17:44:47;13.57;;;11.10;;
38435;SDS011;24220;48.168;14.024;2022-10-19T17:47:17;14.27;;;11.82;;
38435;SDS011;24220;48.168;14.024;2022-10-19T17:49:44;14.43;;;12.55;;
38435;SDS011;24220;48.168;14.024;2022-10-19T17:52:14;15.13;;;12.23;;
38435;SDS011;24220;48.168;14.024;2022-10-19T17:54:43;13.60;;;10.93;;
38435;SDS011;24220;48.168;14.024;2022-10-19T17:57:30;12.02;;;10.35;;
38435;SDS011;24220;48.168;14.024;2022-10-19T18:00:00;12.95;;;9.98;;
38435;SDS011;24220;48.168;14.024;2022-10-19T18:02:28;10.10;;;9.10;;
38435;SDS011;24220;48.168;14.024;2022-10-19T18:04:55;11.43;;;9.10;;
38435;SDS011;24220;48.168;14.024;2022-10-19T18:07:22;10.60;;;8.60;;
38435;SDS011;24220;48.168;14.024;2022-10-19T18:09:51;10.25;;;9.00;;
38435;SDS011;24220;48.168;14.024;2022-10-19T18:12:18;10.30;;;8.50;;
38435;SDS011;24220;48.168;14.024;2022-10-19T18:14:48;10.27;;;8.73;;